Time;durP1;ratioP1;P1;durP2;ratioP2;P2;SDS_P1;SDS_P2;PMS_P1;PMS_P2;Temp;Humidity;BMP_temperature;BMP_pressure;BME280_temperature;BME280_humidity;BME280_pressure;Samples;Min_cycle;Max_cycle;Signal;HPM_P1;HPM_P2
2022/03/03 00:02:14;;;;;;;10.23;8.23;;;20.40;44.70;;;;;;4957962;28;20189;-70
2022/03/03 00:04:40;;;;;;;8.07;7.28;;;20.40;44.70;;;;;;4957892;28;20240;-70
2022/03/03 00:07:06;;;;;;;9.40;7.18;;;20.40;44.70;;;;;;4957680;28;20205;-70
2022/03/03 00:09:32;;;;;;;8.50;7.35;;;20.50;44.80;;;;;;4957744;28;20237;-70
2022/03/03 00:11:58;;;;;;;7.93;7.10;;;20.40;44.70;;;;;;4974151;28;20192;-70
2022/03/03 00:14:24;;;;;;;8.35;7.43;;;20.50;44.80;;;;;;4973718;28;20296;-70
2022/03/03 00:16:50;;;;;;;8.32;7.30;;;20.40;44.70;;;;;;4957586;28;20276;-70
2022/03/03 00:19:16;;;;;;;9.57;8.32;;;20.40;44.70;;;;;;4957269;28;20213;-70
2022/03/03 00:21:41;;;;;;;8.32;7.47;;;20.40;45.30;;;;;;4957859;28;20185;-70
2022/03/03 00:24:07;;;;;;;8.95;8.05;;;20.40;44.60;;;;;;4973420;28;20272;-70
2022/03/03 00:26:33;;;;;;;9.63;8.20;;;20.40;44.50;;;;;;4957145;28;20268;-69
2022/03/03 00:28:59;;;;;;;9.88;8.05;;;20.40;44.60;;;;;;4957429;28;20208;-70
2022/03/03 00:31:25;;;;;;;8.75;7.85;;;20.40;44.50;;;;;;4957413;28;20173;-70
2022/03/03 00:33:51;;;;;;;9.40;8.25;;;20.40;44.40;;;;;;4973040;28;20204;-70
2022/03/03 00:36:16;;;;;;;10.27;8.05;;;20.40;44.40;;;;;;4957074;28;20603;-70
2022/03/03 00:38:42;;;;;;;9.30;8.32;;;20.40;44.40;;;;;;4973351;28;20186;-70
2022/03/03 00:41:08;;;;;;;9.35;8.35;;;20.40;44.30;;;;;;4973304;28;20203;-70
2022/03/03 00:43:35;;;;;;;9.15;8.23;;;20.40;44.30;;;;;;4974356;28;20252;-70
2022/03/03 00:46:00;;;;;;;8.75;7.85;;;20.40;44.40;;;;;;4957221;28;20216;-70
2022/03/03 00:48:26;;;;;;;8.65;7.55;;;20.40;44.30;;;;;;4957204;28;20249;-70
2022/03/03 00:50:52;;;;;;;7.47;6.63;;;20.40;44.50;;;;;;4957066;28;20185;-70
2022/03/03 00:53:18;;;;;;;8.00;7.20;;;20.40;44.60;;;;;;4987437;23;20249;-64
2022/03/03 00:55:44;;;;;;;7.70;7.00;;;20.40;44.60;;;;;;4994533;28;20261;-69
2022/03/03 00:58:09;;;;;;;7.40;6.60;;;20.40;44.60;;;;;;5030921;28;20687;-68
2022/03/03 01:00:35;;;;;;;8.63;7.72;;;20.40;44.60;;;;;;5030792;28;20199;-69
2022/03/03 01:03:01;;;;;;;7.78;7.03;;;20.40;44.60;;;;;;5030685;28;20183;-68
2022/03/03 01:05:27;;;;;;;7.43;6.68;;;20.40;44.60;;;;;;5030571;28;20218;-68
2022/03/03 01:07:53;;;;;;;7.53;6.72;;;20.40;44.60;;;;;;5014087;28;20211;-68
2022/03/03 01:10:19;;;;;;;7.28;6.57;;;20.40;44.60;;;;;;5015310;28;20290;-69
2022/03/03 01:12:45;;;;;;;7.07;6.38;;;20.40;44.60;;;;;;5021544;28;20269;-68
2022/03/03 01:15:11;;;;;;;8.13;6.75;;;20.40;44.60;;;;;;5034479;28;20285;-68
2022/03/03 01:17:38;;;;;;;7.20;6.45;;;20.40;44.50;;;;;;5052517;28;20208;-68
2022/03/03 01:20:08;;;;;;;7.38;6.68;;;20.40;44.60;;;;;;5034617;28;20181;-68
2022/03/03 01:22:34;;;;;;;7.50;6.80;;;20.40;44.40;;;;;;5034752;28;20180;-68
2022/03/03 01:25:00;;;;;;;8.15;7.20;;;20.30;44.30;;;;;;5051386;28;20293;-68
2022/03/03 01:27:26;;;;;;;7.97;7.18;;;20.40;44.40;;;;;;5017952;28;20241;-68
2022/03/03 01:29:52;;;;;;;8.50;7.60;;;20.30;44.30;;;;;;5051425;28;20201;-69
2022/03/03 01:32:18;;;;;;;8.35;7.20;;;20.30;44.20;;;;;;5052307;28;20170;-68
2022/03/03 01:34:44;;;;;;;8.57;7.68;;;20.30;44.20;;;;;;5034485;28;20248;-67
2022/03/03 01:37:10;;;;;;;7.32;6.70;;;20.30;44.20;;;;;;5050883;28;20189;-68
2022/03/03 01:39:35;;;;;;;8.30;7.50;;;20.30;44.10;;;;;;5005250;28;20214;-68
2022/03/03 01:42:01;;;;;;;7.93;7.13;;;20.30;44.10;;;;;;4990227;28;20183;-68
2022/03/03 01:44:27;;;;;;;9.32;6.97;;;20.30;44.10;;;;;;5014933;28;20667;-69
2022/03/03 01:47:00;;;;;;;7.63;6.93;;;20.30;44.30;;;;;;4997806;28;20183;-68
2022/03/03 01:49:26;;;;;;;7.10;6.40;;;20.30;44.30;;;;;;5015498;28;20205;-69
2022/03/03 01:51:53;;;;;;;7.68;6.88;;;20.30;44.40;;;;;;5014511;28;20241;-68
2022/03/03 01:54:19;;;;;;;7.15;6.45;;;20.30;44.40;;;;;;5014399;28;20245;-70
2022/03/03 01:56:46;;;;;;;6.80;6.10;;;20.30;44.40;;;;;;5014384;28;20193;-69
2022/03/03 01:59:13;;;;;;;7.28;6.43;;;20.30;44.40;;;;;;5032236;28;20171;-69
2022/03/03 02:01:41;;;;;;;8.35;6.47;;;20.30;44.40;;;;;;5032060;28;20259;-69
2022/03/03 02:04:09;;;;;;;6.75;6.05;;;20.30;44.40;;;;;;5030921;28;20238;-68
2022/03/03 02:06:37;;;;;;;6.97;6.35;;;20.30;44.50;;;;;;5014488;28;20284;-68
2022/03/03 02:09:03;;;;;;;7.22;6.53;;;20.30;44.40;;;;;;4994651;28;20207;-68
2022/03/03 02:11:32;;;;;;;7.40;6.63;;;20.30;44.30;;;;;;5010168;28;20186;-68
2022/03/03 02:14:01;;;;;;;7.88;7.07;;;20.30;44.30;;;;;;4998184;28;20230;-69
2022/03/03 02:16:27;;;;;;;8.05;7.25;;;20.30;44.20;;;;;;4997797;28;20175;-68
2022/03/03 02:18:52;;;;;;;7.20;6.50;;;20.30;44.20;;;;;;5014106;28;20186;-68
2022/03/03 02:21:18;;;;;;;8.25;7.45;;;20.30;44.10;;;;;;5031965;28;20184;-68
2022/03/03 02:23:44;;;;;;;7.82;7.03;;;20.30;44.10;;;;;;5014308;28;20202;-68
2022/03/03 02:26:19;;;;;;;8.50;7.68;;;20.30;44.00;;;;;;4997582;28;20233;-68
2022/03/03 02:28:48;;;;;;;7.20;6.50;;;20.20;43.80;;;;;;5014360;28;20233;-68
2022/03/03 02:31:14;;;;;;;7.03;6.35;;;20.30;44.10;;;;;;5030923;28;20187;-68
2022/03/03 02:33:40;;;;;;;6.55;5.95;;;20.20;44.10;;;;;;5030821;28;20199;-68
2022/03/03 02:36:24;;;;;;;7.20;6.50;;;20.20;44.20;;;;;;5031647;28;20687;-68
2022/03/03 02:38:54;;;;;;;6.97;6.30;;;20.20;44.20;;;;;;5014317;28;20222;-68
2022/03/03 02:41:21;;;;;;;6.50;5.90;;;20.20;44.20;;;;;;5031658;28;20180;-68
2022/03/03 02:43:47;;;;;;;6.55;5.95;;;20.30;44.30;;;;;;5014058;28;20241;-68
2022/03/03 02:46:13;;;;;;;6.38;5.78;;;20.20;44.20;;;;;;4997358;28;20274;-68
2022/03/03 02:48:39;;;;;;;7.22;6.53;;;20.30;44.30;;;;;;5030628;28;20199;-68
2022/03/03 02:51:07;;;;;;;6.90;6.28;;;20.30;44.20;;;;;;4997982;28;20182;-68
2022/03/03 02:53:33;;;;;;;7.50;6.80;;;20.20;44.20;;;;;;4997612;28;20214;-68
2022/03/03 02:55:59;;;;;;;6.95;6.30;;;20.30;44.20;;;;;;5033243;28;20191;-68
2022/03/03 02:58:25;;;;;;;7.50;6.80;;;20.20;44.10;;;;;;5001464;28;20183;-68
2022/03/03 03:00:52;;;;;;;7.22;6.53;;;20.20;44.00;;;;;;5017603;28;20179;-65
2022/03/03 03:03:19;;;;;;;7.82;7.00;;;20.20;44.00;;;;;;5013977;28;20192;-68
2022/03/03 03:05:46;;;;;;;7.80;7.03;;;20.20;43.90;;;;;;4997682;28;20192;-68
2022/03/03 03:08:13;;;;;;;7.15;6.45;;;20.20;43.90;;;;;;4999308;28;20219;-69
2022/03/03 03:10:40;;;;;;;7.68;6.97;;;20.20;43.80;;;;;;4998264;28;20180;-68
2022/03/03 03:13:11;;;;;;;7.80;7.00;;;20.20;43.80;;;;;;5000777;28;20186;-69
2022/03/03 03:15:37;;;;;;;6.63;6.03;;;20.20;43.90;;;;;;5033503;28;20199;-69
2022/03/03 03:18:11;;;;;;;6.60;5.95;;;20.20;44.00;;;;;;5016985;28;20190;-69
2022/03/03 03:20:43;;;;;;;6.50;5.90;;;20.20;44.10;;;;;;5017315;28;20183;-69
2022/03/03 03:23:14;;;;;;;6.65;5.95;;;20.20;44.10;;;;;;5034778;28;20171;-68
2022/03/03 03:25:43;;;;;;;6.53;5.95;;;20.20;44.10;;;;;;5016994;28;20661;-68
2022/03/03 03:28:18;;;;;;;6.50;5.80;;;20.20;44.10;;;;;;5016870;28;20210;-68
2022/03/03 03:30:45;;;;;;;6.20;5.60;;;20.20;44.10;;;;;;5017085;28;20171;-68
2022/03/03 03:33:10;;;;;;;6.45;5.93;;;20.20;44.00;;;;;;5017174;28;20202;-68
2022/03/03 03:35:36;;;;;;;6.30;5.68;;;20.20;44.00;;;;;;5016845;28;20234;-68
2022/03/03 03:38:03;;;;;;;6.55;5.88;;;20.20;43.90;;;;;;5034252;28;20171;-68
2022/03/03 03:40:30;;;;;;;7.68;6.93;;;20.20;43.90;;;;;;5000377;28;20191;-69
2022/03/03 03:42:55;;;;;;;7.20;6.43;;;20.20;43.90;;;;;;5016795;28;20179;-68
2022/03/03 03:45:21;;;;;;;7.13;6.40;;;20.20;43.80;;;;;;5013857;28;20215;-69
2022/03/03 03:47:47;;;;;;;6.68;6.07;;;20.20;43.90;;;;;;5032451;28;20210;-69
2022/03/03 03:50:14;;;;;;;7.40;6.68;;;20.20;43.70;;;;;;5006455;28;20191;-68
2022/03/03 03:52:42;;;;;;;7.63;6.82;;;20.20;43.70;;;;;;4996526;28;20633;-69
2022/03/03 03:55:11;;;;;;;6.95;6.25;;;20.10;43.60;;;;;;5003678;28;20294;-69
2022/03/03 03:57:38;;;;;;;6.22;5.63;;;20.20;43.80;;;;;;5015684;28;20192;-68
2022/03/03 04:00:14;;;;;;;6.05;5.45;;;20.20;43.70;;;;;;5015752;28;20291;-68
2022/03/03 04:02:44;;;;;;;6.35;5.75;;;20.20;43.90;;;;;;5000288;28;20181;-68
2022/03/03 04:05:12;;;;;;;6.32;5.72;;;20.20;44.00;;;;;;5000162;28;20203;-68
2022/03/03 04:07:40;;;;;;;5.65;5.15;;;20.20;43.90;;;;;;4998716;28;20238;-68
2022/03/03 04:10:06;;;;;;;6.93;6.20;;;20.10;43.90;;;;;;5033639;28;20191;-68
2022/03/03 04:12:32;;;;;;;5.90;5.40;;;20.20;44.00;;;;;;5020289;28;20623;-68
2022/03/03 04:14:58;;;;;;;5.45;5.03;;;20.20;44.00;;;;;;5033846;28;20706;-68
2022/03/03 04:17:23;;;;;;;5.68;5.18;;;20.20;43.90;;;;;;5015700;28;20241;-68
2022/03/03 04:19:49;;;;;;;6.50;5.90;;;20.20;43.90;;;;;;4999945;28;20183;-68
2022/03/03 04:22:15;;;;;;;6.78;5.60;;;20.20;43.90;;;;;;4999440;28;20183;-68
2022/03/03 04:24:41;;;;;;;6.30;5.78;;;20.20;43.80;;;;;;5015882;28;20338;-68
2022/03/03 04:27:07;;;;;;;6.03;5.55;;;20.10;43.70;;;;;;5015614;28;20175;-68
2022/03/03 04:29:33;;;;;;;6.40;5.80;;;20.20;43.70;;;;;;5033676;28;20555;-69
2022/03/03 04:31:58;;;;;;;6.82;6.18;;;20.20;43.80;;;;;;4999883;28;20167;-68
2022/03/03 04:34:25;;;;;;;6.38;5.80;;;20.10;43.60;;;;;;5032367;28;20268;-68
2022/03/03 04:36:52;;;;;;;6.60;5.95;;;20.10;43.60;;;;;;4999188;28;20175;-68
2022/03/03 04:39:18;;;;;;;6.47;5.70;;;20.10;43.50;;;;;;5032165;28;20191;-68
2022/03/03 04:41:43;;;;;;;6.22;5.68;;;20.10;43.40;;;;;;5032078;28;20187;-68
2022/03/03 04:44:09;;;;;;;7.85;7.05;;;20.10;43.40;;;;;;4999058;28;20331;-68
2022/03/03 04:46:35;;;;;;;9.15;8.25;;;20.10;43.50;;;;;;5015445;28;20184;-68
2022/03/03 04:49:01;;;;;;;7.47;6.60;;;20.10;43.40;;;;;;4998949;28;20226;-68
2022/03/03 04:51:29;;;;;;;8.30;7.18;;;20.10;43.60;;;;;;4999167;28;20183;-68
2022/03/03 04:53:55;;;;;;;8.55;6.90;;;20.10;43.60;;;;;;4999061;28;20245;-68
2022/03/03 04:56:21;;;;;;;7.25;6.55;;;20.10;43.60;;;;;;5033085;28;20261;-68
2022/03/03 04:58:46;;;;;;;8.32;7.43;;;20.10;43.60;;;;;;5015517;28;20199;-68
2022/03/03 05:01:12;;;;;;;7.80;7.00;;;20.10;43.70;;;;;;5015371;28;20187;-68
2022/03/03 05:03:38;;;;;;;7.15;6.45;;;20.10;43.70;;;;;;5015357;28;20325;-68
2022/03/03 05:06:04;;;;;;;7.90;6.82;;;20.10;43.70;;;;;;4999055;28;20209;-66
2022/03/03 05:08:30;;;;;;;7.75;6.95;;;20.10;43.70;;;;;;5011830;28;20216;-68
2022/03/03 05:10:56;;;;;;;6.90;6.20;;;20.10;43.70;;;;;;5014449;28;20202;-68
2022/03/03 05:13:22;;;;;;;8.38;7.13;;;20.10;43.70;;;;;;5015383;28;20179;-68
2022/03/03 05:15:48;;;;;;;7.70;6.90;;;20.10;43.80;;;;;;4999146;28;20175;-68
2022/03/03 05:18:13;;;;;;;7.70;7.00;;;20.10;43.70;;;;;;4998466;28;20206;-68
2022/03/03 05:20:39;;;;;;;7.97;7.18;;;20.10;43.60;;;;;;4998910;28;20184;-68
2022/03/03 05:23:05;;;;;;;8.35;7.55;;;20.10;43.60;;;;;;5014994;28;20230;-68
2022/03/03 05:25:31;;;;;;;9.45;8.02;;;20.10;43.50;;;;;;5014915;28;20201;-68
2022/03/03 05:28:00;;;;;;;8.63;7.72;;;20.10;43.50;;;;;;4994910;28;20199;-68
2022/03/03 05:30:27;;;;;;;8.63;7.72;;;20.10;43.40;;;;;;4995329;28;20184;-68
2022/03/03 05:32:52;;;;;;;8.85;7.95;;;20.10;43.40;;;;;;4995267;28;20183;-68
2022/03/03 05:35:19;;;;;;;8.55;7.75;;;20.10;43.30;;;;;;4995341;28;20295;-68
2022/03/03 05:37:48;;;;;;;8.45;7.63;;;20.10;43.30;;;;;;4978914;28;20191;-68
2022/03/03 05:40:16;;;;;;;8.63;7.65;;;20.00;43.10;;;;;;5008700;28;20187;-68
2022/03/03 05:42:43;;;;;;;7.88;7.07;;;20.10;43.40;;;;;;5027855;28;20671;-68
2022/03/03 05:45:10;;;;;;;7.38;6.65;;;20.00;43.40;;;;;;5012898;28;20634;-68
2022/03/03 05:47:36;;;;;;;7.82;7.07;;;20.10;43.50;;;;;;5012450;28;20199;-68
2022/03/03 05:50:04;;;;;;;7.28;6.57;;;20.10;43.50;;;;;;5012888;28;20251;-69
2022/03/03 05:52:30;;;;;;;7.53;6.82;;;20.10;43.50;;;;;;4995311;28;20184;-68
2022/03/03 05:54:56;;;;;;;7.68;6.85;;;20.10;43.50;;;;;;5011276;28;20310;-69
2022/03/03 05:57:32;;;;;;;7.38;6.60;;;20.10;43.50;;;;;;5012328;28;20218;-68
2022/03/03 06:00:28;;;;;;;7.25;6.55;;;20.10;43.50;;;;;;4995446;28;20172;-68
2022/03/03 06:02:55;;;;;;;8.40;7.57;;;20.10;43.60;;;;;;4994639;28;20222;-68
2022/03/03 06:05:25;;;;;;;8.70;7.80;;;20.10;43.40;;;;;;5011236;28;20280;-68
2022/03/03 06:07:53;;;;;;;8.52;7.72;;;20.10;43.30;;;;;;5010957;28;20302;-68
2022/03/03 06:10:25;;;;;;;9.63;8.05;;;20.10;43.20;;;;;;5026376;28;20213;-68
2022/03/03 06:13:08;;;;;;;9.60;8.60;;;20.00;43.00;;;;;;5027533;28;20214;-68
2022/03/03 06:15:37;;;;;;;7.68;6.88;;;20.00;43.10;;;;;;4994575;28;20257;-68
2022/03/03 06:18:04;;;;;;;7.85;7.05;;;20.10;43.50;;;;;;5027776;28;20187;-68
2022/03/03 06:20:36;;;;;;;8.10;7.30;;;20.00;43.40;;;;;;4995078;28;20572;-68
2022/03/03 06:23:01;;;;;;;8.05;7.25;;;20.10;43.40;;;;;;5011001;28;20606;-69
2022/03/03 06:25:27;;;;;;;7.88;7.15;;;20.00;43.40;;;;;;5010972;28;20196;-68
2022/03/03 06:27:54;;;;;;;8.63;7.15;;;20.00;43.50;;;;;;5027278;28;20231;-68
2022/03/03 06:30:19;;;;;;;8.07;7.30;;;20.10;43.50;;;;;;5011851;28;20219;-68
2022/03/03 06:32:45;;;;;;;8.68;7.38;;;20.00;43.40;;;;;;4982616;28;20180;-68
2022/03/03 06:35:11;;;;;;;9.10;7.93;;;20.10;43.50;;;;;;4998489;28;20207;-68
2022/03/03 06:37:37;;;;;;;8.80;7.97;;;20.10;43.50;;;;;;5014488;28;20199;-68
2022/03/03 06:40:04;;;;;;;8.60;7.80;;;20.10;43.40;;;;;;5029692;28;20210;-68
2022/03/03 06:42:30;;;;;;;8.57;7.78;;;20.10;43.40;;;;;;5034706;28;20206;-69
2022/03/03 06:44:55;;;;;;;9.00;8.20;;;20.00;43.30;;;;;;5017837;28;20211;-68
2022/03/03 06:47:22;;;;;;;9.15;8.30;;;20.00;43.20;;;;;;5017438;28;20215;-68
2022/03/03 06:49:49;;;;;;;9.32;8.52;;;20.00;43.10;;;;;;5001211;28;20231;-68
2022/03/03 06:52:17;;;;;;;8.55;7.75;;;20.00;43.10;;;;;;5034237;28;20180;-68
2022/03/03 06:54:52;;;;;;;9.75;8.75;;;20.00;43.10;;;;;;5038512;23;20225;-70
2022/03/03 06:57:22;;;;;;;8.95;8.07;;;20.00;43.00;;;;;;4950545;28;20268;-70
2022/03/03 06:59:52;;;;;;;8.73;7.90;;;20.00;43.20;;;;;;4975588;28;20162;-70
2022/03/03 07:02:18;;;;;;;7.88;7.18;;;20.00;43.20;;;;;;4976092;28;20180;-70
2022/03/03 07:04:48;;;;;;;8.55;7.75;;;20.00;43.20;;;;;;4942893;28;20201;-70
2022/03/03 07:07:14;;;;;;;8.05;7.35;;;20.00;43.20;;;;;;4977610;28;20196;-69
2022/03/03 07:09:41;;;;;;;8.02;7.18;;;20.00;43.30;;;;;;4968183;28;20185;-70
2022/03/03 07:12:08;;;;;;;8.05;7.30;;;20.10;44.00;;;;;;4959894;28;20178;-70
2022/03/03 07:14:33;;;;;;;8.98;8.07;;;20.00;43.30;;;;;;4958497;28;20205;-70
2022/03/03 07:17:04;;;;;;;7.70;7.00;;;20.00;43.40;;;;;;4974005;28;20182;-70
2022/03/03 07:19:38;;;;;;;8.48;7.78;;;20.00;43.40;;;;;;4970418;28;20200;-71
2022/03/03 07:22:32;;;;;;;8.65;7.88;;;20.00;43.40;;;;;;4958911;28;20193;-71
2022/03/03 07:25:14;;;;;;;9.73;8.82;;;20.10;43.40;;;;;;4974588;28;20352;-70
2022/03/03 07:27:45;;;;;;;9.60;8.70;;;20.00;43.20;;;;;;4957989;28;20213;-70
2022/03/03 07:30:16;;;;;;;9.35;8.45;;;20.00;43.20;;;;;;4975671;28;20181;-71
2022/03/03 07:32:53;;;;;;;8.32;7.53;;;20.00;43.40;;;;;;4958376;28;20177;-70
2022/03/03 07:35:23;;;;;;;9.15;8.25;;;20.00;43.40;;;;;;4958374;28;20618;-70
2022/03/03 07:38:05;;;;;;;8.75;7.95;;;20.00;43.40;;;;;;4958001;28;20210;-71
2022/03/03 07:40:32;;;;;;;8.55;7.80;;;20.10;43.50;;;;;;4962024;28;20184;-71
2022/03/03 07:43:00;;;;;;;8.25;7.25;;;20.10;43.50;;;;;;4969374;28;20267;-70
2022/03/03 07:45:27;;;;;;;8.93;8.02;;;20.10;43.50;;;;;;4962462;28;20314;-70
2022/03/03 07:47:55;;;;;;;8.63;7.85;;;20.10;43.90;;;;;;4957628;28;20244;-70
2022/03/03 07:50:22;;;;;;;9.35;8.45;;;20.20;43.70;;;;;;4980011;28;20214;-70
2022/03/03 07:52:53;;;;;;;8.90;7.50;;;20.20;43.70;;;;;;4958341;28;20190;-70
2022/03/03 07:55:19;;;;;;;9.48;8.60;;;20.20;43.70;;;;;;4957898;28;20209;-71
2022/03/03 07:58:02;;;;;;;9.73;8.73;;;20.20;43.70;;;;;;4957834;28;20193;-71
2022/03/03 08:00:34;;;;;;;9.68;8.77;;;20.20;43.60;;;;;;4962298;28;20646;-70
2022/03/03 08:03:08;;;;;;;8.45;7.53;;;20.20;43.50;;;;;;4958186;28;20197;-70
2022/03/03 08:05:35;;;;;;;9.00;8.20;;;20.30;43.60;;;;;;4975073;28;20760;-70
2022/03/03 08:08:02;;;;;;;8.15;7.35;;;20.40;43.70;;;;;;4956568;28;20221;-70
2022/03/03 08:10:31;;;;;;;9.18;8.27;;;20.40;43.60;;;;;;4972695;28;20190;-70
2022/03/03 08:12:59;;;;;;;8.65;7.80;;;20.40;43.60;;;;;;4956637;28;20220;-70
2022/03/03 08:15:25;;;;;;;9.55;7.95;;;20.40;43.50;;;;;;4956946;28;20205;-70
2022/03/03 08:17:53;;;;;;;8.40;7.65;;;20.40;43.50;;;;;;4957090;28;20579;-70
2022/03/03 08:20:21;;;;;;;9.15;7.25;;;20.40;43.50;;;;;;4956240;28;20204;-71
2022/03/03 08:22:47;;;;;;;9.25;8.38;;;20.50;43.60;;;;;;4948715;28;20654;-70
2022/03/03 08:25:14;;;;;;;8.60;7.90;;;20.50;43.50;;;;;;4956717;28;20699;-71
2022/03/03 08:27:41;;;;;;;9.43;8.52;;;20.50;43.50;;;;;;4956197;28;20221;-71
2022/03/03 08:30:09;;;;;;;10.13;9.15;;;20.60;43.60;;;;;;4956980;28;20192;-71
2022/03/03 08:32:47;;;;;;;10.85;9.70;;;20.50;43.50;;;;;;4956802;28;20181;-71
2022/03/03 08:35:18;;;;;;;10.02;9.13;;;20.50;43.50;;;;;;4956670;28;20205;-70
2022/03/03 08:38:00;;;;;;;9.27;8.38;;;20.60;43.60;;;;;;4955738;28;20288;-71
2022/03/03 08:40:27;;;;;;;8.55;7.75;;;20.60;43.50;;;;;;4956690;28;20217;-70
2022/03/03 08:43:02;;;;;;;8.60;7.78;;;20.60;43.50;;;;;;4956657;28;20194;-71
2022/03/03 08:45:29;;;;;;;7.93;7.22;;;20.60;43.50;;;;;;4956395;28;20744;-70
2022/03/03 08:48:03;;;;;;;7.25;6.55;;;20.60;43.50;;;;;;4956329;28;20213;-71
2022/03/03 08:50:31;;;;;;;8.73;7.93;;;20.60;43.50;;;;;;4956378;28;20287;-72
2022/03/03 08:52:59;;;;;;;7.93;7.22;;;20.60;43.50;;;;;;4971768;28;20190;-71
2022/03/03 08:55:27;;;;;;;7.90;7.20;;;20.70;43.60;;;;;;4955820;28;20220;-70
2022/03/03 08:57:54;;;;;;;7.78;7.07;;;20.70;43.60;;;;;;4955932;28;20213;-71
2022/03/03 09:00:20;;;;;;;7.90;7.20;;;20.70;43.60;;;;;;4956281;28;20255;-70
2022/03/03 09:02:48;;;;;;;8.80;7.50;;;20.70;43.80;;;;;;4957157;28;20204;-71
2022/03/03 09:05:14;;;;;;;8.00;7.20;;;20.70;43.60;;;;;;4956704;28;20209;-71
2022/03/03 09:07:40;;;;;;;7.80;7.00;;;20.70;43.60;;;;;;4956610;28;20210;-71
2022/03/03 09:10:08;;;;;;;8.30;7.50;;;20.70;43.60;;;;;;4956585;28;20208;-70
2022/03/03 09:12:35;;;;;;;8.00;7.30;;;20.70;43.60;;;;;;4956823;28;20185;-71
2022/03/03 09:15:02;;;;;;;7.78;7.00;;;20.70;43.50;;;;;;4956790;28;20197;-71
2022/03/03 09:17:28;;;;;;;7.53;6.82;;;20.70;43.60;;;;;;4940471;28;20201;-71
2022/03/03 09:19:53;;;;;;;7.88;7.07;;;20.70;43.50;;;;;;4956529;28;20178;-71
2022/03/03 09:22:19;;;;;;;7.90;7.20;;;20.70;43.50;;;;;;4972817;28;20189;-71
2022/03/03 09:24:45;;;;;;;7.18;6.57;;;20.70;43.40;;;;;;4956629;28;20206;-69
2022/03/03 09:27:10;;;;;;;7.03;6.38;;;20.80;43.60;;;;;;4956203;28;20201;-71
2022/03/03 09:29:37;;;;;;;7.05;6.45;;;20.70;43.50;;;;;;4956719;28;20213;-70
2022/03/03 09:32:04;;;;;;;7.47;6.78;;;20.80;43.50;;;;;;4972612;28;20320;-71
2022/03/03 09:34:30;;;;;;;7.80;6.65;;;20.70;44.00;;;;;;4956181;28;20709;-71
2022/03/03 09:36:57;;;;;;;7.10;6.45;;;20.80;43.50;;;;;;4961456;28;20186;-70
2022/03/03 09:39:24;;;;;;;7.35;6.65;;;20.80;43.50;;;;;;4970140;28;20193;-71
2022/03/03 09:41:52;;;;;;;7.32;6.60;;;20.80;43.50;;;;;;4975572;28;20195;-71
2022/03/03 09:44:26;;;;;;;7.00;6.40;;;20.80;43.50;;;;;;4991709;28;20291;-71
2022/03/03 09:46:53;;;;;;;7.95;7.15;;;20.80;43.50;;;;;;4970824;28;20190;-70
2022/03/03 09:49:19;;;;;;;8.38;7.35;;;20.80;43.50;;;;;;4956193;28;20252;-71
2022/03/03 09:51:47;;;;;;;6.50;5.90;;;20.70;43.40;;;;;;4973692;28;20277;-70
2022/03/03 09:54:14;;;;;;;6.68;5.95;;;20.80;43.50;;;;;;4956302;28;20209;-70
2022/03/03 09:56:40;;;;;;;6.15;5.65;;;20.80;43.50;;;;;;4956037;28;20170;-71
2022/03/03 09:59:10;;;;;;;6.47;5.88;;;20.80;43.40;;;;;;4956249;28;20182;-71
2022/03/03 10:01:36;;;;;;;5.90;5.40;;;20.80;43.50;;;;;;4963570;28;20189;-70
2022/03/03 10:04:21;;;;;;;6.35;5.75;;;20.80;43.40;;;;;;4964135;28;20205;-71
2022/03/03 10:06:48;;;;;;;6.82;6.22;;;20.80;43.40;;;;;;4958985;28;20239;-70
2022/03/03 10:09:18;;;;;;;6.00;5.50;;;20.80;43.40;;;;;;4959878;28;20267;-71
2022/03/03 10:11:47;;;;;;;6.32;5.72;;;20.80;43.40;;;;;;4960582;28;20193;-71
2022/03/03 10:14:13;;;;;;;6.32;5.75;;;20.80;43.30;;;;;;4979212;28;20200;-70
2022/03/03 10:16:47;;;;;;;6.50;5.90;;;20.80;43.30;;;;;;4979015;28;20518;-70
2022/03/03 10:19:14;;;;;;;6.47;5.88;;;20.80;43.40;;;;;;4973761;28;20180;-71
2022/03/03 10:21:43;;;;;;;6.05;5.55;;;20.80;43.30;;;;;;4976452;28;20267;-70
2022/03/03 10:24:24;;;;;;;6.50;5.90;;;20.80;43.40;;;;;;4977215;28;20682;-71
2022/03/03 10:27:07;;;;;;;5.82;5.32;;;20.80;43.40;;;;;;4943823;28;20181;-70
2022/03/03 10:29:35;;;;;;;5.93;5.30;;;20.80;43.50;;;;;;4959618;28;20240;-70
2022/03/03 10:32:02;;;;;;;5.32;4.85;;;20.80;43.50;;;;;;4959815;28;20229;-70
2022/03/03 10:34:37;;;;;;;6.55;5.85;;;20.80;43.30;;;;;;4959870;28;20338;-72
2022/03/03 10:37:09;;;;;;;6.68;6.07;;;20.80;43.30;;;;;;4959445;28;20181;-70
2022/03/03 10:40:00;;;;;;;5.97;5.38;;;20.80;43.40;;;;;;4967311;28;20254;-71
2022/03/03 10:42:27;;;;;;;6.05;5.40;;;20.80;43.50;;;;;;4959321;28;20185;-71
2022/03/03 10:45:11;;;;;;;5.68;4.97;;;20.80;43.40;;;;;;4959394;28;20205;-71
2022/03/03 10:47:37;;;;;;;5.68;5.18;;;20.80;43.40;;;;;;4989178;28;20192;-70
2022/03/03 10:50:04;;;;;;;5.35;4.85;;;20.80;43.50;;;;;;4978833;28;20230;-71
2022/03/03 10:52:35;;;;;;;5.82;5.30;;;20.80;43.50;;;;;;4963525;28;20178;-71
2022/03/03 10:55:13;;;;;;;7.53;5.43;;;20.80;43.30;;;;;;4975331;28;20338;-69
2022/03/03 10:57:46;;;;;;;10.43;5.70;;;20.80;43.30;;;;;;4959133;28;20170;-69
2022/03/03 11:00:21;;;;;;;7.05;6.03;;;20.80;44.70;;;;;;4959313;28;20623;-70
2022/03/03 11:02:50;;;;;;;10.52;6.55;;;20.80;45.80;;;;;;4959358;28;20165;-70
2022/03/03 11:05:19;;;;;;;8.32;6.22;;;20.90;46.00;;;;;;4976288;28;20205;-70
2022/03/03 11:07:47;;;;;;;10.27;6.00;;;21.00;46.40;;;;;;4959035;28;20213;-70
2022/03/03 11:10:16;;;;;;;10.02;5.82;;;21.00;46.20;;;;;;4975172;28;20229;-69
2022/03/03 11:12:43;;;;;;;7.78;5.93;;;21.10;46.30;;;;;;4974955;28;20209;-70
2022/03/03 11:15:12;;;;;;;9.52;5.60;;;21.10;46.50;;;;;;4958686;28;20205;-70
2022/03/03 11:17:39;;;;;;;7.90;5.63;;;21.10;47.40;;;;;;4975315;28;20170;-70
2022/03/03 11:20:08;;;;;;;9.60;5.38;;;21.20;47.00;;;;;;4958657;28;20205;-70
2022/03/03 11:22:34;;;;;;;6.40;5.15;;;21.20;47.10;;;;;;4958629;28;20185;-70
2022/03/03 11:25:09;;;;;;;6.63;5.53;;;21.20;47.10;;;;;;4976789;28;20205;-69
2022/03/03 11:27:41;;;;;;;8.75;5.30;;;21.20;47.30;;;;;;4976413;28;20166;-70
2022/03/03 11:30:37;;;;;;;9.68;5.68;;;21.20;47.50;;;;;;4958658;28;20184;-70
2022/03/03 11:33:26;;;;;;;7.55;5.63;;;21.20;47.40;;;;;;4926890;28;20217;-70
2022/03/03 11:35:57;;;;;;;10.10;5.55;;;21.20;47.60;;;;;;4958555;28;20300;-70
2022/03/03 11:38:27;;;;;;;7.38;4.40;;;21.20;47.90;;;;;;4942131;28;20196;-70
2022/03/03 11:41:04;;;;;;;9.43;4.78;;;21.20;48.00;;;;;;4958110;28;20184;-70
2022/03/03 11:43:46;;;;;;;5.57;4.53;;;21.20;48.00;;;;;;4957954;28;20185;-71
2022/03/03 11:46:12;;;;;;;9.45;5.10;;;21.20;47.90;;;;;;4956476;28;20232;-70
2022/03/03 11:48:39;;;;;;;10.27;5.45;;;21.20;47.50;;;;;;4991509;28;20233;-70
2022/03/03 11:51:34;;;;;;;9.40;5.78;;;21.20;47.40;;;;;;4989114;28;20193;-70
2022/03/03 11:54:11;;;;;;;9.07;6.35;;;21.20;47.30;;;;;;4957819;28;20189;-69
2022/03/03 11:57:07;;;;;;;10.38;5.95;;;21.20;47.10;;;;;;4975420;28;20173;-70
2022/03/03 11:59:35;;;;;;;10.27;5.13;;;21.30;47.20;;;;;;4933623;28;20572;-70
2022/03/03 12:02:01;;;;;;;5.90;4.43;;;21.30;47.50;;;;;;4961436;28;20713;-69
2022/03/03 12:04:27;;;;;;;10.75;4.80;;;21.20;47.40;;;;;;4957808;28;20228;-70
2022/03/03 12:06:56;;;;;;;5.15;4.45;;;21.30;47.60;;;;;;4957770;28;20618;-70
2022/03/03 12:09:30;;;;;;;6.40;4.40;;;21.30;47.60;;;;;;4957904;28;20236;-70
2022/03/03 12:12:13;;;;;;;7.18;4.25;;;21.30;47.60;;;;;;4957722;28;20209;-70
2022/03/03 12:14:57;;;;;;;5.55;4.50;;;21.30;47.70;;;;;;4973591;28;20264;-70
2022/03/03 12:17:48;;;;;;;8.35;4.53;;;21.30;47.90;;;;;;4957701;28;20198;-71
2022/03/03 12:20:35;;;;;;;5.68;3.78;;;21.30;47.90;;;;;;4957676;28;20237;-70
2022/03/03 12:23:35;;;;;;;5.45;4.00;;;21.30;48.10;;;;;;4957360;28;20221;-70
2022/03/03 12:26:04;;;;;;;9.30;5.10;;;21.30;48.30;;;;;;4913710;29;20225;-70
2022/03/03 12:28:48;;;;;;;7.28;4.15;;;21.30;48.40;;;;;;4969269;28;20270;-70
2022/03/03 12:31:25;;;;;;;6.05;4.63;;;21.30;48.40;;;;;;4979242;28;20247;-69
2022/03/03 12:34:20;;;;;;;5.97;4.03;;;21.30;48.40;;;;;;4961056;28;20181;-70
2022/03/03 12:36:46;;;;;;;6.30;3.42;;;21.30;48.30;;;;;;4955497;28;20209;-70
2022/03/03 12:39:13;;;;;;;5.93;4.15;;;21.40;48.60;;;;;;4957354;28;20260;-70
2022/03/03 12:41:40;;;;;;;5.85;3.65;;;21.30;48.50;;;;;;4977539;28;20188;-70
2022/03/03 12:44:11;;;;;;;5.55;3.75;;;21.30;48.50;;;;;;4969150;28;20232;-70
2022/03/03 12:46:37;;;;;;;6.28;3.38;;;21.30;48.60;;;;;;4960265;28;20206;-69
2022/03/03 12:49:05;;;;;;;4.75;3.53;;;21.30;48.60;;;;;;4956980;28;20232;-70
2022/03/03 12:51:32;;;;;;;4.90;4.10;;;21.30;48.80;;;;;;4959055;28;20272;-70
2022/03/03 12:54:06;;;;;;;7.63;4.30;;;21.40;48.80;;;;;;4973941;28;20223;-70
2022/03/03 12:56:33;;;;;;;11.95;4.68;;;21.30;48.80;;;;;;4999510;22;20240;-70